sensor_id;sensor_type;location;lat;lon;timestamp;P1;durP1;ratioP1;P2;durP2;ratioP2
24743;SDS011;12844;52.110;5.548;2024-02-21T00:09:13;4.55;;;2.95;;
24743;SDS011;12844;52.110;5.548;2024-02-21T00:11:38;6.88;;;3.33;;
24743;SDS011;12844;52.110;5.548;2024-02-21T00:14:04;3.95;;;2.92;;
24743;SDS011;12844;52.110;5.548;2024-02-21T00:16:30;5.55;;;3.47;;
24743;SDS011;12844;52.110;5.548;2024-02-21T00:18:55;6.28;;;3.17;;
24743;SDS011;12844;52.110;5.548;2024-02-21T00:21:21;5.05;;;2.90;;
24743;SDS011;12844;52.110;5.548;2024-02-21T00:23:47;4.88;;;3.30;;
24743;SDS011;12844;52.110;5.548;2024-02-21T00:26:13;4.50;;;2.72;;
24743;SDS011;12844;52.110;5.548;2024-02-21T00:28:39;5.45;;;2.92;;
24743;SDS011;12844;52.110;5.548;2024-02-21T00:31:05;4.63;;;3.00;;
24743;SDS011;12844;52.110;5.548;2024-02-21T00:33:30;5.20;;;3.08;;
24743;SDS011;12844;52.110;5.548;2024-02-21T00:35:56;3.53;;;2.95;;
24743;SDS011;12844;52.110;5.548;2024-02-21T00:38:22;3.00;;;2.70;;
24743;SDS011;12844;52.110;5.548;2024-02-21T00:40:47;5.57;;;3.00;;
24743;SDS011;12844;52.110;5.548;2024-02-21T00:43:13;4.47;;;2.85;;
24743;SDS011;12844;52.110;5.548;2024-02-21T00:45:38;4.50;;;2.95;;
24743;SDS011;12844;52.110;5.548;2024-02-21T00:48:04;4.20;;;2.88;;
24743;SDS011;12844;52.110;5.548;2024-02-21T00:50:30;4.82;;;2.80;;
24743;SDS011;12844;52.110;5.548;2024-02-21T00:52:56;4.47;;;2.97;;
24743;SDS011;12844;52.110;5.548;2024-02-21T00:55:21;5.47;;;3.05;;
24743;SDS011;12844;52.110;5.548;2024-02-21T00:57:47;4.65;;;2.65;;
24743;SDS011;12844;52.110;5.548;2024-02-21T01:00:13;4.90;;;2.78;;
24743;SDS011;12844;52.110;5.548;2024-02-21T01:02:39;4.35;;;2.50;;
24743;SDS011;12844;52.110;5.548;2024-02-21T01:05:04;4.13;;;2.80;;
24743;SDS011;12844;52.110;5.548;2024-02-21T01:07:30;4.03;;;2.53;;
24743;SDS011;12844;52.110;5.548;2024-02-21T01:09:56;4.25;;;2.85;;
24743;SDS011;12844;52.110;5.548;2024-02-21T01:12:21;3.83;;;2.72;;
24743;SDS011;12844;52.110;5.548;2024-02-21T01:14:47;3.08;;;2.47;;
24743;SDS011;12844;52.110;5.548;2024-02-21T01:17:14;3.95;;;2.90;;
24743;SDS011;12844;52.110;5.548;2024-02-21T01:19:40;4.30;;;2.83;;
24743;SDS011;12844;52.110;5.548;2024-02-21T01:22:06;4.00;;;2.67;;
24743;SDS011;12844;52.110;5.548;2024-02-21T01:24:31;6.00;;;2.58;;
24743;SDS011;12844;52.110;5.548;2024-02-21T01:26:58;3.90;;;2.67;;
24743;SDS011;12844;52.110;5.548;2024-02-21T01:29:23;4.65;;;2.45;;
24743;SDS011;12844;52.110;5.548;2024-02-21T01:31:49;2.97;;;2.05;;
24743;SDS011;12844;52.110;5.548;2024-02-21T01:34:14;4.00;;;2.60;;
24743;SDS011;12844;52.110;5.548;2024-02-21T01:36:40;3.75;;;2.40;;
24743;SDS011;12844;52.110;5.548;2024-02-21T01:39:07;3.92;;;2.30;;
24743;SDS011;12844;52.110;5.548;2024-02-21T01:41:32;3.95;;;2.58;;
24743;SDS011;12844;52.110;5.548;2024-02-21T01:43:58;3.65;;;2.60;;
24743;SDS011;12844;52.110;5.548;2024-02-21T01:46:24;4.10;;;2.70;;
24743;SDS011;12844;52.110;5.548;2024-02-21T01:48:57;3.22;;;2.35;;
24743;SDS011;12844;52.110;5.548;2024-02-21T01:51:23;4.10;;;2.50;;
24743;SDS011;12844;52.110;5.548;2024-02-21T01:53:50;3.83;;;2.30;;
24743;SDS011;12844;52.110;5.548;2024-02-21T01:56:16;3.47;;;2.40;;
24743;SDS011;12844;52.110;5.548;2024-02-21T01:58:42;3.25;;;2.47;;
24743;SDS011;12844;52.110;5.548;2024-02-21T02:01:10;3.67;;;2.63;;
24743;SDS011;12844;52.110;5.548;2024-02-21T02:03:36;3.17;;;2.47;;
24743;SDS011;12844;52.110;5.548;2024-02-21T02:06:02;3.53;;;2.58;;
24743;SDS011;12844;52.110;5.548;2024-02-21T02:08:29;4.90;;;2.38;;
24743;SDS011;12844;52.110;5.548;2024-02-21T02:10:56;3.58;;;2.40;;
24743;SDS011;12844;52.110;5.548;2024-02-21T02:13:22;4.18;;;2.40;;
24743;SDS011;12844;52.110;5.548;2024-02-21T02:15:48;3.20;;;2.22;;
24743;SDS011;12844;52.110;5.548;2024-02-21T02:18:15;3.70;;;2.33;;
24743;SDS011;12844;52.110;5.548;2024-02-21T02:20:41;2.72;;;2.20;;
24743;SDS011;12844;52.110;5.548;2024-02-21T02:23:16;3.72;;;2.30;;
24743;SDS011;12844;52.110;5.548;2024-02-21T02:25:45;3.55;;;2.20;;
24743;SDS011;12844;52.110;5.548;2024-02-21T02:28:14;4.32;;;2.22;;
24743;SDS011;12844;52.110;5.548;2024-02-21T02:30:40;3.40;;;2.40;;
24743;SDS011;12844;52.110;5.548;2024-02-21T02:33:06;3.58;;;2.10;;
24743;SDS011;12844;52.110;5.548;2024-02-21T02:35:31;3.65;;;2.20;;
24743;SDS011;12844;52.110;5.548;2024-02-21T02:37:58;5.28;;;2.40;;
24743;SDS011;12844;52.110;5.548;2024-02-21T02:40:24;4.57;;;2.60;;
24743;SDS011;12844;52.110;5.548;2024-02-21T02:42:50;5.03;;;2.38;;
24743;SDS011;12844;52.110;5.548;2024-02-21T02:45:16;3.83;;;2.20;;
24743;SDS011;12844;52.110;5.548;2024-02-21T02:47:44;3.55;;;2.28;;
24743;SDS011;12844;52.110;5.548;2024-02-21T02:50:13;3.67;;;2.25;;
24743;SDS011;12844;52.110;5.548;2024-02-21T02:52:39;3.40;;;2.30;;
24743;SDS011;12844;52.110;5.548;2024-02-21T02:55:05;5.97;;;2.58;;
24743;SDS011;12844;52.110;5.548;2024-02-21T02:57:31;4.57;;;2.67;;
24743;SDS011;12844;52.110;5.548;2024-02-21T02:59:57;5.45;;;2.60;;
24743;SDS011;12844;52.110;5.548;2024-02-21T03:02:23;4.78;;;2.60;;
24743;SDS011;12844;52.110;5.548;2024-02-21T03:04:49;3.95;;;2.40;;
24743;SDS011;12844;52.110;5.548;2024-02-21T03:07:15;4.63;;;2.40;;
24743;SDS011;12844;52.110;5.548;2024-02-21T03:09:41;4.80;;;2.67;;
24743;SDS011;12844;52.110;5.548;2024-02-21T03:12:07;3.85;;;2.20;;
24743;SDS011;12844;52.110;5.548;2024-02-21T03:14:34;3.70;;;2.20;;
24743;SDS011;12844;52.110;5.548;2024-02-21T03:17:00;4.47;;;2.60;;
24743;SDS011;12844;52.110;5.548;2024-02-21T03:19:27;3.30;;;2.13;;
24743;SDS011;12844;52.110;5.548;2024-02-21T03:21:53;4.13;;;2.40;;
24743;SDS011;12844;52.110;5.548;2024-02-21T03:24:19;4.15;;;2.38;;
24743;SDS011;12844;52.110;5.548;2024-02-21T03:26:44;3.90;;;2.40;;
24743;SDS011;12844;52.110;5.548;2024-02-21T03:29:19;3.60;;;2.35;;
24743;SDS011;12844;52.110;5.548;2024-02-21T03:31:45;4.93;;;2.67;;
24743;SDS011;12844;52.110;5.548;2024-02-21T03:34:10;3.78;;;2.30;;
24743;SDS011;12844;52.110;5.548;2024-02-21T03:36:36;3.67;;;2.03;;
24743;SDS011;12844;52.110;5.548;2024-02-21T03:39:02;4.43;;;2.40;;
24743;SDS011;12844;52.110;5.548;2024-02-21T03:41:28;3.70;;;2.40;;
24743;SDS011;12844;52.110;5.548;2024-02-21T03:43:54;4.65;;;2.45;;
24743;SDS011;12844;52.110;5.548;2024-02-21T03:46:20;4.30;;;2.50;;
24743;SDS011;12844;52.110;5.548;2024-02-21T03:48:45;3.38;;;2.28;;
24743;SDS011;12844;52.110;5.548;2024-02-21T03:51:11;3.92;;;2.25;;
24743;SDS011;12844;52.110;5.548;2024-02-21T03:53:37;3.80;;;2.38;;
24743;SDS011;12844;52.110;5.548;2024-02-21T03:56:02;3.75;;;2.45;;
24743;SDS011;12844;52.110;5.548;2024-02-21T03:58:29;4.07;;;2.35;;
24743;SDS011;12844;52.110;5.548;2024-02-21T04:00:55;3.47;;;2.40;;
24743;SDS011;12844;52.110;5.548;2024-02-21T04:03:21;4.22;;;2.40;;
24743;SDS011;12844;52.110;5.548;2024-02-21T04:05:46;5.43;;;2.53;;
24743;SDS011;12844;52.110;5.548;2024-02-21T04:08:13;3.97;;;2.30;;
24743;SDS011;12844;52.110;5.548;2024-02-21T04:10:39;3.67;;;2.30;;
24743;SDS011;12844;52.110;5.548;2024-02-21T04:13:06;4.90;;;2.47;;
24743;SDS011;12844;52.110;5.548;2024-02-21T04:15:32;5.22;;;2.80;;
24743;SDS011;12844;52.110;5.548;2024-02-21T04:17:57;4.75;;;2.80;;
24743;SDS011;12844;52.110;5.548;2024-02-21T04:20:23;3.55;;;2.45;;
24743;SDS011;12844;52.110;5.548;2024-02-21T04:22:49;3.40;;;2.60;;
24743;SDS011;12844;52.110;5.548;2024-02-21T04:25:14;6.05;;;2.35;;
24743;SDS011;12844;52.110;5.548;2024-02-21T04:27:40;4.55;;;2.50;;
24743;SDS011;12844;52.110;5.548;2024-02-21T04:30:06;3.22;;;2.28;;
24743;SDS011;12844;52.110;5.548;2024-02-21T04:32:32;4.25;;;2.47;;
24743;SDS011;12844;52.110;5.548;2024-02-21T04:34:58;3.65;;;2.38;;
24743;SDS011;12844;52.110;5.548;2024-02-21T04:37:23;3.70;;;2.55;;
24743;SDS011;12844;52.110;5.548;2024-02-21T04:39:49;4.30;;;2.88;;
24743;SDS011;12844;52.110;5.548;2024-02-21T04:42:15;4.28;;;2.30;;
24743;SDS011;12844;52.110;5.548;2024-02-21T04:44:41;3.28;;;2.40;;
24743;SDS011;12844;52.110;5.548;2024-02-21T04:47:07;3.75;;;2.47;;
24743;SDS011;12844;52.110;5.548;2024-02-21T04:49:32;4.15;;;2.70;;
24743;SDS011;12844;52.110;5.548;2024-02-21T04:51:58;3.35;;;2.53;;
24743;SDS011;12844;52.110;5.548;2024-02-21T04:54:24;3.85;;;2.35;;
24743;SDS011;12844;52.110;5.548;2024-02-21T04:56:50;4.40;;;2.63;;
24743;SDS011;12844;52.110;5.548;2024-02-21T04:59:15;3.13;;;2.40;;
24743;SDS011;12844;52.110;5.548;2024-02-21T05:01:41;3.63;;;2.60;;
24743;SDS011;12844;52.110;5.548;2024-02-21T05:04:07;3.60;;;2.40;;
24743;SDS011;12844;52.110;5.548;2024-02-21T05:06:36;3.92;;;2.88;;
24743;SDS011;12844;52.110;5.548;2024-02-21T05:09:05;4.10;;;2.72;;
24743;SDS011;12844;52.110;5.548;2024-02-21T05:11:31;4.40;;;2.80;;
24743;SDS011;12844;52.110;5.548;2024-02-21T05:13:57;4.35;;;2.53;;
24743;SDS011;12844;52.110;5.548;2024-02-21T05:16:23;3.95;;;2.45;;
24743;SDS011;12844;52.110;5.548;2024-02-21T05:18:48;4.38;;;2.53;;
24743;SDS011;12844;52.110;5.548;2024-02-21T05:21:14;3.22;;;2.53;;
24743;SDS011;12844;52.110;5.548;2024-02-21T05:23:39;4.82;;;2.47;;
24743;SDS011;12844;52.110;5.548;2024-02-21T05:26:06;3.88;;;2.40;;
24743;SDS011;12844;52.110;5.548;2024-02-21T05:28:31;3.75;;;2.85;;
24743;SDS011;12844;52.110;5.548;2024-02-21T05:30:57;4.53;;;2.80;;
24743;SDS011;12844;52.110;5.548;2024-02-21T05:33:23;3.83;;;2.65;;
24743;SDS011;12844;52.110;5.548;2024-02-21T05:35:49;3.65;;;2.80;;
24743;SDS011;12844;52.110;5.548;2024-02-21T05:38:15;3.92;;;2.90;;
24743;SDS011;12844;52.110;5.548;2024-02-21T05:40:41;3.67;;;2.42;;
24743;SDS011;12844;52.110;5.548;2024-02-21T05:43:07;3.58;;;2.65;;
24743;SDS011;12844;52.110;5.548;2024-02-21T05:45:33;4.65;;;2.70;;
24743;SDS011;12844;52.110;5.548;2024-02-21T05:47:59;3.53;;;2.58;;
24743;SDS011;12844;52.110;5.548;2024-02-21T05:50:25;3.50;;;2.80;;
24743;SDS011;12844;52.110;5.548;2024-02-21T05:52:52;3.75;;;2.42;;
24743;SDS011;12844;52.110;5.548;2024-02-21T05:55:18;3.80;;;2.15;;
24743;SDS011;12844;52.110;5.548;2024-02-21T05:57:44;3.33;;;2.63;;
24743;SDS011;12844;52.110;5.548;2024-02-21T06:00:10;3.47;;;2.40;;
24743;SDS011;12844;52.110;5.548;2024-02-21T06:02:36;3.78;;;2.13;;
24743;SDS011;12844;52.110;5.548;2024-02-21T06:05:02;5.47;;;2.70;;
24743;SDS011;12844;52.110;5.548;2024-02-21T06:07:27;5.13;;;2.70;;
24743;SDS011;12844;52.110;5.548;2024-02-21T06:09:53;3.42;;;2.40;;
24743;SDS011;12844;52.110;5.548;2024-02-21T06:12:19;3.75;;;2.83;;
24743;SDS011;12844;52.110;5.548;2024-02-21T06:14:44;3.70;;;2.70;;
24743;SDS011;12844;52.110;5.548;2024-02-21T06:17:10;5.22;;;2.70;;
24743;SDS011;12844;52.110;5.548;2024-02-21T06:19:39;3.42;;;2.70;;
24743;SDS011;12844;52.110;5.548;2024-02-21T06:22:06;3.42;;;2.78;;
24743;SDS011;12844;52.110;5.548;2024-02-21T06:24:33;4.40;;;2.90;;
24743;SDS011;12844;52.110;5.548;2024-02-21T06:26:59;4.68;;;2.63;;
24743;SDS011;12844;52.110;5.548;2024-02-21T06:29:25;5.32;;;2.95;;
24743;SDS011;12844;52.110;5.548;2024-02-21T06:42:30;5.13;;;3.20;;
24743;SDS011;12844;52.110;5.548;2024-02-21T06:44:56;5.07;;;3.60;;
24743;SDS011;12844;52.110;5.548;2024-02-21T06:47:22;4.65;;;3.40;;
24743;SDS011;12844;52.110;5.548;2024-02-21T06:49:50;4.97;;;3.50;;
24743;SDS011;12844;52.110;5.548;2024-02-21T06:52:19;4.25;;;3.80;;
24743;SDS011;12844;52.110;5.548;2024-02-21T06:54:48;6.13;;;3.75;;
24743;SDS011;12844;52.110;5.548;2024-02-21T06:57:14;4.82;;;3.70;;
24743;SDS011;12844;52.110;5.548;2024-02-21T06:59:40;5.82;;;3.75;;
24743;SDS011;12844;52.110;5.548;2024-02-21T07:02:06;5.25;;;3.45;;
24743;SDS011;12844;52.110;5.548;2024-02-21T07:04:32;5.40;;;3.70;;
24743;SDS011;12844;52.110;5.548;2024-02-21T07:06:58;4.80;;;3.47;;
24743;SDS011;12844;52.110;5.548;2024-02-21T07:09:24;5.15;;;3.70;;
24743;SDS011;12844;52.110;5.548;2024-02-21T07:11:50;5.07;;;3.58;;
24743;SDS011;12844;52.110;5.548;2024-02-21T07:14:15;4.95;;;3.42;;
24743;SDS011;12844;52.110;5.548;2024-02-21T07:16:41;5.93;;;4.00;;
24743;SDS011;12844;52.110;5.548;2024-02-21T07:19:07;5.30;;;3.88;;
24743;SDS011;12844;52.110;5.548;2024-02-21T07:21:32;4.53;;;3.78;;
24743;SDS011;12844;52.110;5.548;2024-02-21T07:23:58;4.80;;;3.28;;
24743;SDS011;12844;52.110;5.548;2024-02-21T07:26:23;4.95;;;3.65;;
24743;SDS011;12844;52.110;5.548;2024-02-21T07:28:49;6.13;;;3.78;;
24743;SDS011;12844;52.110;5.548;2024-02-21T07:31:15;4.85;;;3.90;;
24743;SDS011;12844;52.110;5.548;2024-02-21T07:33:40;5.32;;;3.67;;
24743;SDS011;12844;52.110;5.548;2024-02-21T07:36:10;5.47;;;4.05;;
24743;SDS011;12844;52.110;5.548;2024-02-21T07:38:36;4.53;;;3.42;;
24743;SDS011;12844;52.110;5.548;2024-02-21T07:41:02;4.50;;;3.42;;
24743;SDS011;12844;52.110;5.548;2024-02-21T07:43:29;5.65;;;3.67;;
24743;SDS011;12844;52.110;5.548;2024-02-21T07:45:55;8.13;;;3.42;;
24743;SDS011;12844;52.110;5.548;2024-02-21T07:48:21;5.45;;;3.55;;
24743;SDS011;12844;52.110;5.548;2024-02-21T07:50:50;4.82;;;3.60;;
24743;SDS011;12844;52.110;5.548;2024-02-21T07:53:16;4.75;;;3.63;;
24743;SDS011;12844;52.110;5.548;2024-02-21T07:55:41;5.78;;;3.90;;
24743;SDS011;12844;52.110;5.548;2024-02-21T07:58:07;5.63;;;3.70;;
24743;SDS011;12844;52.110;5.548;2024-02-21T08:00:32;6.72;;;3.00;;
24743;SDS011;12844;52.110;5.548;2024-02-21T08:02:58;6.80;;;3.20;;
24743;SDS011;12844;52.110;5.548;2024-02-21T08:05:24;5.07;;;3.25;;
24743;SDS011;12844;52.110;5.548;2024-02-21T08:07:50;4.38;;;2.78;;
24743;SDS011;12844;52.110;5.548;2024-02-21T08:10:15;4.88;;;3.00;;
24743;SDS011;12844;52.110;5.548;2024-02-21T08:12:41;4.55;;;2.92;;
24743;SDS011;12844;52.110;5.548;2024-02-21T08:15:07;4.63;;;2.90;;
24743;SDS011;12844;52.110;5.548;2024-02-21T08:17:35;5.72;;;3.00;;
24743;SDS011;12844;52.110;5.548;2024-02-21T08:20:01;5.72;;;2.70;;
24743;SDS011;12844;52.110;5.548;2024-02-21T08:22:28;4.60;;;2.60;;
24743;SDS011;12844;52.110;5.548;2024-02-21T08:24:53;3.33;;;2.42;;
24743;SDS011;12844;52.110;5.548;2024-02-21T08:27:19;3.97;;;2.28;;
24743;SDS011;12844;52.110;5.548;2024-02-21T08:29:44;5.45;;;2.70;;
24743;SDS011;12844;52.110;5.548;2024-02-21T08:32:10;6.28;;;2.60;;
24743;SDS011;12844;52.110;5.548;2024-02-21T08:34:36;5.22;;;2.53;;
24743;SDS011;12844;52.110;5.548;2024-02-21T08:37:01;3.55;;;2.40;;
24743;SDS011;12844;52.110;5.548;2024-02-21T08:39:27;3.17;;;2.47;;
24743;SDS011;12844;52.110;5.548;2024-02-21T08:41:55;4.25;;;2.40;;
24743;SDS011;12844;52.110;5.548;2024-02-21T08:44:24;5.65;;;2.70;;
24743;SDS011;12844;52.110;5.548;2024-02-21T08:46:53;5.03;;;2.73;;
24743;SDS011;12844;52.110;5.548;2024-02-21T08:49:18;4.63;;;2.97;;
24743;SDS011;12844;52.110;5.548;2024-02-21T08:51:44;4.90;;;3.08;;
24743;SDS011;12844;52.110;5.548;2024-02-21T08:54:11;4.65;;;2.78;;
24743;SDS011;12844;52.110;5.548;2024-02-21T08:56:37;5.03;;;2.65;;
24743;SDS011;12844;52.110;5.548;2024-02-21T08:59:02;4.05;;;2.65;;
24743;SDS011;12844;52.110;5.548;2024-02-21T09:01:28;5.18;;;2.80;;
24743;SDS011;12844;52.110;5.548;2024-02-21T09:03:54;4.95;;;2.60;;
24743;SDS011;12844;52.110;5.548;2024-02-21T09:06:21;5.85;;;3.05;;
24743;SDS011;12844;52.110;5.548;2024-02-21T09:08:47;5.22;;;2.90;;
24743;SDS011;12844;52.110;5.548;2024-02-21T09:11:13;5.55;;;3.08;;
24743;SDS011;12844;52.110;5.548;2024-02-21T09:13:39;5.53;;;2.80;;
24743;SDS011;12844;52.110;5.548;2024-02-21T09:16:04;5.57;;;3.30;;
24743;SDS011;12844;52.110;5.548;2024-02-21T09:18:31;4.80;;;3.13;;
24743;SDS011;12844;52.110;5.548;2024-02-21T09:20:56;4.68;;;2.97;;
24743;SDS011;12844;52.110;5.548;2024-02-21T09:23:25;4.50;;;2.60;;
24743;SDS011;12844;52.110;5.548;2024-02-21T09:25:51;4.35;;;3.00;;
24743;SDS011;12844;52.110;5.548;2024-02-21T09:28:16;6.82;;;2.70;;
24743;SDS011;12844;52.110;5.548;2024-02-21T09:30:44;3.35;;;2.63;;
24743;SDS011;12844;52.110;5.548;2024-02-21T09:33:10;5.97;;;2.53;;
24743;SDS011;12844;52.110;5.548;2024-02-21T09:35:36;3.67;;;2.40;;
24743;SDS011;12844;52.110;5.548;2024-02-21T09:38:01;3.80;;;2.58;;
24743;SDS011;12844;52.110;5.548;2024-02-21T09:40:27;7.03;;;2.75;;
24743;SDS011;12844;52.110;5.548;2024-02-21T09:43:11;5.07;;;2.88;;
24743;SDS011;12844;52.110;5.548;2024-02-21T09:45:42;4.15;;;2.50;;
24743;SDS011;12844;52.110;5.548;2024-02-21T09:48:19;3.70;;;2.42;;
24743;SDS011;12844;52.110;5.548;2024-02-21T09:50:59;6.43;;;2.60;;
24743;SDS011;12844;52.110;5.548;2024-02-21T09:53:27;5.57;;;2.53;;
24743;SDS011;12844;52.110;5.548;2024-02-21T09:55:53;7.43;;;2.47;;
24743;SDS011;12844;52.110;5.548;2024-02-21T09:58:20;5.43;;;2.25;;
24743;SDS011;12844;52.110;5.548;2024-02-21T10:00:46;4.53;;;2.50;;
24743;SDS011;12844;52.110;5.548;2024-02-21T10:03:12;4.10;;;2.30;;
24743;SDS011;12844;52.110;5.548;2024-02-21T10:05:38;5.13;;;2.47;;
24743;SDS011;12844;52.110;5.548;2024-02-21T10:08:04;5.28;;;2.40;;
24743;SDS011;12844;52.110;5.548;2024-02-21T10:10:40;4.00;;;2.00;;
24743;SDS011;12844;52.110;5.548;2024-02-21T10:13:10;4.38;;;2.60;;
24743;SDS011;12844;52.110;5.548;2024-02-21T10:15:36;5.72;;;2.63;;
24743;SDS011;12844;52.110;5.548;2024-02-21T10:18:02;5.72;;;2.47;;
24743;SDS011;12844;52.110;5.548;2024-02-21T10:20:28;5.43;;;2.55;;
24743;SDS011;12844;52.110;5.548;2024-02-21T10:23:01;5.13;;;2.30;;
24743;SDS011;12844;52.110;5.548;2024-02-21T10:25:28;5.43;;;2.38;;
24743;SDS011;12844;52.110;5.548;2024-02-21T10:27:55;4.32;;;2.20;;
24743;SDS011;12844;52.110;5.548;2024-02-21T10:30:21;5.57;;;2.47;;
24743;SDS011;12844;52.110;5.548;2024-02-21T10:32:53;4.18;;;2.33;;
24743;SDS011;12844;52.110;5.548;2024-02-21T10:35:29;3.78;;;2.28;;
24743;SDS011;12844;52.110;5.548;2024-02-21T10:37:58;3.63;;;2.40;;
24743;SDS011;12844;52.110;5.548;2024-02-21T10:40:28;5.30;;;2.83;;
24743;SDS011;12844;52.110;5.548;2024-02-21T10:42:56;4.07;;;2.60;;
24743;SDS011;12844;52.110;5.548;2024-02-21T10:45:28;4.40;;;2.50;;
24743;SDS011;12844;52.110;5.548;2024-02-21T10:48:10;5.78;;;2.75;;
24743;SDS011;12844;52.110;5.548;2024-02-21T10:56:20;5.40;;;2.80;;
24743;SDS011;12844;52.110;5.548;2024-02-21T10:58:50;4.70;;;2.70;;
24743;SDS011;12844;52.110;5.548;2024-02-21T11:01:17;5.95;;;2.42;;
24743;SDS011;12844;52.110;5.548;2024-02-21T11:03:44;6.13;;;2.65;;
24743;SDS011;12844;52.110;5.548;2024-02-21T11:06:12;5.28;;;2.35;;
24743;SDS011;12844;52.110;5.548;2024-02-21T11:08:38;8.63;;;2.53;;
24743;SDS011;12844;52.110;5.548;2024-02-21T11:11:04;7.45;;;2.75;;
24743;SDS011;12844;52.110;5.548;2024-02-21T11:13:36;7.78;;;2.70;;
24743;SDS011;12844;52.110;5.548;2024-02-21T11:16:09;4.85;;;2.88;;
24743;SDS011;12844;52.110;5.548;2024-02-21T11:18:38;10.40;;;2.88;;
24743;SDS011;12844;52.110;5.548;2024-02-21T11:21:04;6.40;;;2.97;;
24743;SDS011;12844;52.110;5.548;2024-02-21T11:23:30;7.13;;;2.80;;
24743;SDS011;12844;52.110;5.548;2024-02-21T11:28:31;6.20;;;2.92;;
24743;SDS011;12844;52.110;5.548;2024-02-21T11:31:07;5.68;;;2.53;;
24743;SDS011;12844;52.110;5.548;2024-02-21T11:33:34;7.93;;;2.90;;
24743;SDS011;12844;52.110;5.548;2024-02-21T11:36:00;8.32;;;2.90;;
24743;SDS011;12844;52.110;5.548;2024-02-21T11:38:28;7.38;;;3.20;;
24743;SDS011;12844;52.110;5.548;2024-02-21T11:40:54;5.65;;;2.70;;
24743;SDS011;12844;52.110;5.548;2024-02-21T11:43:19;6.78;;;2.78;;
24743;SDS011;12844;52.110;5.548;2024-02-21T11:45:45;6.32;;;2.88;;
24743;SDS011;12844;52.110;5.548;2024-02-21T11:48:11;5.22;;;2.80;;
24743;SDS011;12844;52.110;5.548;2024-02-21T11:50:36;8.00;;;3.10;;
24743;SDS011;12844;52.110;5.548;2024-02-21T11:53:04;6.95;;;2.80;;
24743;SDS011;12844;52.110;5.548;2024-02-21T11:55:30;4.65;;;2.67;;
24743;SDS011;12844;52.110;5.548;2024-02-21T11:57:56;5.57;;;2.60;;
24743;SDS011;12844;52.110;5.548;2024-02-21T12:00:21;4.90;;;2.97;;
24743;SDS011;12844;52.110;5.548;2024-02-21T12:02:49;7.30;;;2.85;;
24743;SDS011;12844;52.110;5.548;2024-02-21T12:05:15;9.15;;;2.80;;
24743;SDS011;12844;52.110;5.548;2024-02-21T12:07:41;4.68;;;2.67;;
24743;SDS011;12844;52.110;5.548;2024-02-21T12:10:10;4.93;;;2.78;;
24743;SDS011;12844;52.110;5.548;2024-02-21T12:12:37;6.68;;;3.47;;
24743;SDS011;12844;52.110;5.548;2024-02-21T12:15:04;6.18;;;3.17;;
24743;SDS011;12844;52.110;5.548;2024-02-21T12:17:30;5.78;;;2.55;;
24743;SDS011;12844;52.110;5.548;2024-02-21T12:20:00;5.20;;;2.65;;
24743;SDS011;12844;52.110;5.548;2024-02-21T12:22:29;6.97;;;2.88;;
24743;SDS011;12844;52.110;5.548;2024-02-21T12:24:57;7.35;;;3.20;;
24743;SDS011;12844;52.110;5.548;2024-02-21T12:27:23;8.43;;;3.17;;
24743;SDS011;12844;52.110;5.548;2024-02-21T12:29:48;5.68;;;2.92;;
24743;SDS011;12844;52.110;5.548;2024-02-21T12:32:14;6.43;;;2.97;;
24743;SDS011;12844;52.110;5.548;2024-02-21T12:34:40;6.15;;;2.53;;
24743;SDS011;12844;52.110;5.548;2024-02-21T12:37:05;5.63;;;2.97;;
24743;SDS011;12844;52.110;5.548;2024-02-21T12:39:31;4.75;;;2.58;;
24743;SDS011;12844;52.110;5.548;2024-02-21T12:41:57;6.90;;;3.20;;
24743;SDS011;12844;52.110;5.548;2024-02-21T12:44:23;6.97;;;2.90;;
24743;SDS011;12844;52.110;5.548;2024-02-21T12:46:49;6.55;;;3.00;;
24743;SDS011;12844;52.110;5.548;2024-02-21T12:49:17;7.10;;;3.17;;
24743;SDS011;12844;52.110;5.548;2024-02-21T12:51:43;4.97;;;2.83;;
24743;SDS011;12844;52.110;5.548;2024-02-21T12:54:11;5.80;;;2.70;;
24743;SDS011;12844;52.110;5.548;2024-02-21T12:56:37;3.53;;;2.38;;
24743;SDS011;12844;52.110;5.548;2024-02-21T12:59:03;5.35;;;2.58;;
24743;SDS011;12844;52.110;5.548;2024-02-21T13:01:28;7.40;;;2.70;;
24743;SDS011;12844;52.110;5.548;2024-02-21T13:03:54;7.72;;;2.42;;
24743;SDS011;12844;52.110;5.548;2024-02-21T13:06:20;6.20;;;2.50;;
24743;SDS011;12844;52.110;5.548;2024-02-21T13:08:46;5.47;;;2.55;;
24743;SDS011;12844;52.110;5.548;2024-02-21T13:11:12;10.02;;;2.90;;
24743;SDS011;12844;52.110;5.548;2024-02-21T13:13:38;4.55;;;2.33;;
24743;SDS011;12844;52.110;5.548;2024-02-21T13:16:03;5.47;;;2.63;;
24743;SDS011;12844;52.110;5.548;2024-02-21T13:18:29;5.30;;;2.80;;
24743;SDS011;12844;52.110;5.548;2024-02-21T13:20:55;5.13;;;2.70;;
24743;SDS011;12844;52.110;5.548;2024-02-21T13:23:21;9.73;;;2.60;;
24743;SDS011;12844;52.110;5.548;2024-02-21T13:25:47;6.25;;;2.53;;
24743;SDS011;12844;52.110;5.548;2024-02-21T13:28:13;8.48;;;2.85;;
24743;SDS011;12844;52.110;5.548;2024-02-21T13:30:40;7.93;;;2.50;;
24743;SDS011;12844;52.110;5.548;2024-02-21T13:33:06;8.68;;;3.03;;
24743;SDS011;12844;52.110;5.548;2024-02-21T13:35:32;7.85;;;2.95;;
24743;SDS011;12844;52.110;5.548;2024-02-21T13:37:57;6.45;;;2.75;;
24743;SDS011;12844;52.110;5.548;2024-02-21T13:40:23;7.65;;;2.85;;
24743;SDS011;12844;52.110;5.548;2024-02-21T13:42:50;6.80;;;2.90;;
24743;SDS011;12844;52.110;5.548;2024-02-21T13:45:16;9.43;;;2.78;;
24743;SDS011;12844;52.110;5.548;2024-02-21T13:47:42;6.57;;;3.03;;
24743;SDS011;12844;52.110;5.548;2024-02-21T13:50:07;6.93;;;2.90;;
24743;SDS011;12844;52.110;5.548;2024-02-21T13:52:35;6.72;;;2.85;;
24743;SDS011;12844;52.110;5.548;2024-02-21T13:55:01;7.38;;;2.88;;
24743;SDS011;12844;52.110;5.548;2024-02-21T13:57:28;6.03;;;2.58;;
24743;SDS011;12844;52.110;5.548;2024-02-21T13:59:53;7.55;;;3.33;;
24743;SDS011;12844;52.110;5.548;2024-02-21T14:02:19;6.65;;;3.00;;
24743;SDS011;12844;52.110;5.548;2024-02-21T14:04:46;6.82;;;3.13;;
24743;SDS011;12844;52.110;5.548;2024-02-21T14:07:12;6.05;;;3.22;;
24743;SDS011;12844;52.110;5.548;2024-02-21T14:09:37;4.68;;;2.92;;
24743;SDS011;12844;52.110;5.548;2024-02-21T14:12:03;6.95;;;3.40;;
24743;SDS011;12844;52.110;5.548;2024-02-21T14:14:33;5.53;;;3.05;;
24743;SDS011;12844;52.110;5.548;2024-02-21T14:17:00;4.40;;;2.83;;
24743;SDS011;12844;52.110;5.548;2024-02-21T14:19:25;4.88;;;2.88;;
24743;SDS011;12844;52.110;5.548;2024-02-21T14:21:51;5.53;;;2.80;;
24743;SDS011;12844;52.110;5.548;2024-02-21T14:24:17;6.05;;;3.05;;
24743;SDS011;12844;52.110;5.548;2024-02-21T14:26:43;6.47;;;3.00;;
24743;SDS011;12844;52.110;5.548;2024-02-21T14:29:09;4.20;;;2.80;;
24743;SDS011;12844;52.110;5.548;2024-02-21T14:31:35;5.15;;;2.63;;
24743;SDS011;12844;52.110;5.548;2024-02-21T14:34:00;5.72;;;2.63;;
24743;SDS011;12844;52.110;5.548;2024-02-21T14:36:27;4.63;;;2.60;;
24743;SDS011;12844;52.110;5.548;2024-02-21T14:38:52;5.15;;;2.90;;
24743;SDS011;12844;52.110;5.548;2024-02-21T14:41:18;4.88;;;2.42;;
24743;SDS011;12844;52.110;5.548;2024-02-21T14:43:44;4.18;;;2.60;;
24743;SDS011;12844;52.110;5.548;2024-02-21T14:46:11;5.82;;;2.85;;
24743;SDS011;12844;52.110;5.548;2024-02-21T14:48:37;5.00;;;2.47;;
24743;SDS011;12844;52.110;5.548;2024-02-21T14:51:03;5.47;;;2.75;;
24743;SDS011;12844;52.110;5.548;2024-02-21T14:53:29;5.07;;;2.63;;
24743;SDS011;12844;52.110;5.548;2024-02-21T14:55:55;4.20;;;2.60;;
24743;SDS011;12844;52.110;5.548;2024-02-21T14:58:22;6.22;;;2.80;;
24743;SDS011;12844;52.110;5.548;2024-02-21T15:00:49;7.93;;;3.13;;
24743;SDS011;12844;52.110;5.548;2024-02-21T15:03:15;5.72;;;2.58;;
24743;SDS011;12844;52.110;5.548;2024-02-21T15:05:44;5.00;;;2.63;;
24743;SDS011;12844;52.110;5.548;2024-02-21T15:08:11;4.55;;;2.42;;
24743;SDS011;12844;52.110;5.548;2024-02-21T15:10:37;4.57;;;2.58;;